sensor_id;sensor_type;location;lat;lon;timestamp;P1;durP1;ratioP1;P2;durP2;ratioP2
83404;SDS011;73331;48.168;20.776;2023-12-22T00:00:42;12.43;;;7.53;;
83404;SDS011;73331;48.168;20.776;2023-12-22T00:02:13;10.60;;;6.10;;
83404;SDS011;73331;48.168;20.776;2023-12-22T00:03:43;12.85;;;7.93;;
83404;SDS011;73331;48.168;20.776;2023-12-22T00:05:16;12.98;;;7.35;;
83404;SDS011;73331;48.168;20.776;2023-12-22T00:06:46;12.02;;;6.80;;
83404;SDS011;73331;48.168;20.776;2023-12-22T00:08:19;10.60;;;5.93;;
83404;SDS011;73331;48.168;20.776;2023-12-22T00:09:49;10.13;;;6.55;;
83404;SDS011;73331;48.168;20.776;2023-12-22T00:11:19;11.43;;;5.85;;
83404;SDS011;73331;48.168;20.776;2023-12-22T00:12:50;11.07;;;6.90;;
83404;SDS011;73331;48.168;20.776;2023-12-22T00:14:20;10.60;;;7.38;;
83404;SDS011;73331;48.168;20.776;2023-12-22T00:15:51;11.30;;;6.85;;
83404;SDS011;73331;48.168;20.776;2023-12-22T00:17:21;12.30;;;6.90;;
83404;SDS011;73331;48.168;20.776;2023-12-22T00:18:52;12.30;;;7.40;;
83404;SDS011;73331;48.168;20.776;2023-12-22T00:20:24;13.23;;;7.43;;
83404;SDS011;73331;48.168;20.776;2023-12-22T00:21:54;10.75;;;7.38;;
83404;SDS011;73331;48.168;20.776;2023-12-22T00:23:25;10.60;;;5.72;;
83404;SDS011;73331;48.168;20.776;2023-12-22T00:24:55;13.20;;;7.63;;
83404;SDS011;73331;48.168;20.776;2023-12-22T00:26:26;10.85;;;7.28;;
83404;SDS011;73331;48.168;20.776;2023-12-22T00:27:56;8.10;;;4.63;;
83404;SDS011;73331;48.168;20.776;2023-12-22T00:29:27;9.73;;;5.70;;
83404;SDS011;73331;48.168;20.776;2023-12-22T00:30:58;4.65;;;2.95;;
83404;SDS011;73331;48.168;20.776;2023-12-22T00:32:29;4.40;;;3.00;;
83404;SDS011;73331;48.168;20.776;2023-12-22T00:33:59;4.63;;;2.40;;
83404;SDS011;73331;48.168;20.776;2023-12-22T00:35:31;8.10;;;5.15;;
83404;SDS011;73331;48.168;20.776;2023-12-22T00:37:02;3.75;;;2.53;;
83404;SDS011;73331;48.168;20.776;2023-12-22T00:38:34;4.05;;;2.60;;
83404;SDS011;73331;48.168;20.776;2023-12-22T00:40:05;3.85;;;2.47;;
83404;SDS011;73331;48.168;20.776;2023-12-22T00:41:38;3.80;;;2.30;;
83404;SDS011;73331;48.168;20.776;2023-12-22T00:43:08;4.80;;;2.33;;
83404;SDS011;73331;48.168;20.776;2023-12-22T00:44:39;4.63;;;3.03;;
83404;SDS011;73331;48.168;20.776;2023-12-22T00:46:10;4.38;;;2.88;;
83404;SDS011;73331;48.168;20.776;2023-12-22T00:47:41;4.32;;;2.75;;
83404;SDS011;73331;48.168;20.776;2023-12-22T00:49:11;8.98;;;5.78;;
83404;SDS011;73331;48.168;20.776;2023-12-22T00:50:42;11.20;;;6.95;;
83404;SDS011;73331;48.168;20.776;2023-12-22T00:52:12;11.20;;;6.63;;
83404;SDS011;73331;48.168;20.776;2023-12-22T00:53:42;10.10;;;6.57;;
83404;SDS011;73331;48.168;20.776;2023-12-22T00:55:13;12.07;;;6.93;;
83404;SDS011;73331;48.168;20.776;2023-12-22T00:56:44;14.20;;;7.43;;
83404;SDS011;73331;48.168;20.776;2023-12-22T00:58:14;11.77;;;6.88;;
83404;SDS011;73331;48.168;20.776;2023-12-22T00:59:45;13.35;;;6.10;;
83404;SDS011;73331;48.168;20.776;2023-12-22T01:01:17;11.10;;;7.05;;
83404;SDS011;73331;48.168;20.776;2023-12-22T01:02:48;12.95;;;7.38;;
83404;SDS011;73331;48.168;20.776;2023-12-22T01:04:19;14.02;;;7.05;;
83404;SDS011;73331;48.168;20.776;2023-12-22T01:05:49;12.77;;;7.18;;
83404;SDS011;73331;48.168;20.776;2023-12-22T01:07:20;13.18;;;7.30;;
83404;SDS011;73331;48.168;20.776;2023-12-22T01:08:50;11.68;;;7.05;;
83404;SDS011;73331;48.168;20.776;2023-12-22T01:10:21;11.23;;;6.80;;
83404;SDS011;73331;48.168;20.776;2023-12-22T01:11:51;5.28;;;3.75;;
83404;SDS011;73331;48.168;20.776;2023-12-22T01:13:22;7.45;;;4.30;;
83404;SDS011;73331;48.168;20.776;2023-12-22T01:14:52;5.55;;;3.05;;
83404;SDS011;73331;48.168;20.776;2023-12-22T01:16:23;5.97;;;3.15;;
83404;SDS011;73331;48.168;20.776;2023-12-22T01:17:54;6.40;;;3.25;;
83404;SDS011;73331;48.168;20.776;2023-12-22T01:19:24;4.88;;;3.05;;
83404;SDS011;73331;48.168;20.776;2023-12-22T01:20:55;6.22;;;2.83;;
83404;SDS011;73331;48.168;20.776;2023-12-22T01:22:25;4.72;;;2.70;;
83404;SDS011;73331;48.168;20.776;2023-12-22T01:23:56;4.28;;;2.90;;
83404;SDS011;73331;48.168;20.776;2023-12-22T01:25:28;6.20;;;3.33;;
83404;SDS011;73331;48.168;20.776;2023-12-22T01:26:59;4.90;;;3.47;;
83404;SDS011;73331;48.168;20.776;2023-12-22T01:28:29;5.00;;;2.85;;
83404;SDS011;73331;48.168;20.776;2023-12-22T01:30:00;5.53;;;3.25;;
83404;SDS011;73331;48.168;20.776;2023-12-22T01:31:30;5.47;;;3.75;;
83404;SDS011;73331;48.168;20.776;2023-12-22T01:33:01;9.52;;;5.57;;
83404;SDS011;73331;48.168;20.776;2023-12-22T01:34:31;10.10;;;5.30;;
83404;SDS011;73331;48.168;20.776;2023-12-22T01:36:02;10.32;;;6.60;;
83404;SDS011;73331;48.168;20.776;2023-12-22T01:37:33;8.95;;;5.70;;
83404;SDS011;73331;48.168;20.776;2023-12-22T01:39:03;10.13;;;6.72;;
83404;SDS011;73331;48.168;20.776;2023-12-22T01:40:34;12.15;;;7.78;;
83404;SDS011;73331;48.168;20.776;2023-12-22T01:42:06;10.82;;;7.05;;
83404;SDS011;73331;48.168;20.776;2023-12-22T01:43:36;11.45;;;6.80;;
83404;SDS011;73331;48.168;20.776;2023-12-22T01:45:07;12.02;;;7.22;;
83404;SDS011;73331;48.168;20.776;2023-12-22T01:46:38;14.40;;;7.90;;
83404;SDS011;73331;48.168;20.776;2023-12-22T01:48:08;14.45;;;8.35;;
83404;SDS011;73331;48.168;20.776;2023-12-22T01:49:39;13.45;;;8.13;;
83404;SDS011;73331;48.168;20.776;2023-12-22T01:51:10;15.85;;;8.10;;
83404;SDS011;73331;48.168;20.776;2023-12-22T01:52:41;12.48;;;7.47;;
83404;SDS011;73331;48.168;20.776;2023-12-22T01:54:13;14.20;;;8.32;;
83404;SDS011;73331;48.168;20.776;2023-12-22T01:55:46;14.77;;;8.25;;
83404;SDS011;73331;48.168;20.776;2023-12-22T01:57:18;15.05;;;8.80;;
83404;SDS011;73331;48.168;20.776;2023-12-22T01:58:50;13.57;;;8.05;;
83404;SDS011;73331;48.168;20.776;2023-12-22T02:00:23;13.02;;;7.65;;
83404;SDS011;73331;48.168;20.776;2023-12-22T02:01:53;15.73;;;8.88;;
83404;SDS011;73331;48.168;20.776;2023-12-22T02:03:24;12.93;;;8.18;;
83404;SDS011;73331;48.168;20.776;2023-12-22T02:04:55;13.95;;;7.88;;
83404;SDS011;73331;48.168;20.776;2023-12-22T02:06:27;13.80;;;8.43;;
83404;SDS011;73331;48.168;20.776;2023-12-22T02:08:00;15.25;;;8.32;;
83404;SDS011;73331;48.168;20.776;2023-12-22T02:09:31;11.23;;;6.18;;
83404;SDS011;73331;48.168;20.776;2023-12-22T02:11:01;7.00;;;4.57;;
83404;SDS011;73331;48.168;20.776;2023-12-22T02:12:32;5.85;;;3.40;;
83404;SDS011;73331;48.168;20.776;2023-12-22T02:14:03;6.03;;;3.90;;
83404;SDS011;73331;48.168;20.776;2023-12-22T02:15:34;6.47;;;3.67;;
83404;SDS011;73331;48.168;20.776;2023-12-22T02:18:41;5.40;;;3.00;;
83404;SDS011;73331;48.168;20.776;2023-12-22T02:20:13;6.60;;;3.30;;
83404;SDS011;73331;48.168;20.776;2023-12-22T02:22:03;4.95;;;2.85;;
83404;SDS011;73331;48.168;20.776;2023-12-22T02:23:35;5.70;;;3.05;;
83404;SDS011;73331;48.168;20.776;2023-12-22T02:25:06;5.00;;;3.42;;
83404;SDS011;73331;48.168;20.776;2023-12-22T02:26:39;5.10;;;3.28;;
83404;SDS011;73331;48.168;20.776;2023-12-22T02:29:48;3.30;;;2.08;;
83404;SDS011;73331;48.168;20.776;2023-12-22T02:31:23;3.75;;;2.85;;
83404;SDS011;73331;48.168;20.776;2023-12-22T02:33:03;4.32;;;2.88;;
83404;SDS011;73331;48.168;20.776;2023-12-22T02:34:35;4.80;;;2.63;;
83404;SDS011;73331;48.168;20.776;2023-12-22T02:36:07;5.30;;;2.70;;
83404;SDS011;73331;48.168;20.776;2023-12-22T02:37:39;4.45;;;2.92;;
83404;SDS011;73331;48.168;20.776;2023-12-22T02:39:11;4.40;;;2.25;;
83404;SDS011;73331;48.168;20.776;2023-12-22T02:40:44;3.90;;;2.40;;
83404;SDS011;73331;48.168;20.776;2023-12-22T02:42:15;3.55;;;2.35;;
83404;SDS011;73331;48.168;20.776;2023-12-22T02:45:18;3.50;;;2.25;;
83404;SDS011;73331;48.168;20.776;2023-12-22T02:46:49;3.55;;;2.45;;
83404;SDS011;73331;48.168;20.776;2023-12-22T02:48:20;3.95;;;2.53;;
83404;SDS011;73331;48.168;20.776;2023-12-22T02:49:50;1.33;;;1.05;;
83404;SDS011;73331;48.168;20.776;2023-12-22T02:51:21;3.67;;;2.15;;
83404;SDS011;73331;48.168;20.776;2023-12-22T02:52:51;4.57;;;2.53;;
83404;SDS011;73331;48.168;20.776;2023-12-22T02:54:22;5.03;;;2.30;;
83404;SDS011;73331;48.168;20.776;2023-12-22T02:55:52;3.97;;;2.20;;
83404;SDS011;73331;48.168;20.776;2023-12-22T02:57:23;2.78;;;1.83;;
83404;SDS011;73331;48.168;20.776;2023-12-22T02:58:53;3.33;;;2.35;;
83404;SDS011;73331;48.168;20.776;2023-12-22T03:00:24;3.05;;;1.55;;
83404;SDS011;73331;48.168;20.776;2023-12-22T03:01:54;2.83;;;1.98;;
83404;SDS011;73331;48.168;20.776;2023-12-22T03:03:25;3.92;;;2.20;;
83404;SDS011;73331;48.168;20.776;2023-12-22T03:04:55;3.33;;;1.75;;
83404;SDS011;73331;48.168;20.776;2023-12-22T03:06:26;3.25;;;2.35;;
83404;SDS011;73331;48.168;20.776;2023-12-22T03:07:56;3.42;;;1.42;;
83404;SDS011;73331;48.168;20.776;2023-12-22T03:09:26;8.48;;;2.67;;
83404;SDS011;73331;48.168;20.776;2023-12-22T03:10:57;2.42;;;1.73;;
83404;SDS011;73331;48.168;20.776;2023-12-22T03:12:27;4.18;;;2.30;;
83404;SDS011;73331;48.168;20.776;2023-12-22T03:13:58;2.75;;;1.50;;
83404;SDS011;73331;48.168;20.776;2023-12-22T03:15:28;1.83;;;1.33;;
83404;SDS011;73331;48.168;20.776;2023-12-22T03:16:59;4.15;;;1.80;;
83404;SDS011;73331;48.168;20.776;2023-12-22T03:18:30;2.42;;;1.80;;
83404;SDS011;73331;48.168;20.776;2023-12-22T03:20:01;2.25;;;1.58;;
83404;SDS011;73331;48.168;20.776;2023-12-22T03:21:31;2.70;;;1.67;;
83404;SDS011;73331;48.168;20.776;2023-12-22T03:23:02;2.85;;;1.30;;
83404;SDS011;73331;48.168;20.776;2023-12-22T03:24:32;1.83;;;1.40;;
83404;SDS011;73331;48.168;20.776;2023-12-22T03:26:03;1.90;;;1.30;;
83404;SDS011;73331;48.168;20.776;2023-12-22T03:27:34;3.20;;;1.90;;
83404;SDS011;73331;48.168;20.776;2023-12-22T03:29:05;2.08;;;1.50;;
83404;SDS011;73331;48.168;20.776;2023-12-22T03:30:35;2.95;;;1.70;;
83404;SDS011;73331;48.168;20.776;2023-12-22T03:32:08;2.75;;;1.38;;
83404;SDS011;73331;48.168;20.776;2023-12-22T03:33:38;2.90;;;1.60;;
83404;SDS011;73331;48.168;20.776;2023-12-22T03:35:08;2.05;;;1.42;;
83404;SDS011;73331;48.168;20.776;2023-12-22T03:36:39;1.73;;;1.23;;
83404;SDS011;73331;48.168;20.776;2023-12-22T03:38:10;1.67;;;1.20;;
83404;SDS011;73331;48.168;20.776;2023-12-22T03:39:40;1.80;;;1.10;;
83404;SDS011;73331;48.168;20.776;2023-12-22T03:41:10;1.95;;;1.15;;
83404;SDS011;73331;48.168;20.776;2023-12-22T03:42:41;3.40;;;1.80;;
83404;SDS011;73331;48.168;20.776;2023-12-22T03:44:11;2.50;;;1.40;;
83404;SDS011;73331;48.168;20.776;2023-12-22T03:45:42;3.03;;;1.50;;
83404;SDS011;73331;48.168;20.776;2023-12-22T03:47:12;4.25;;;2.05;;
83404;SDS011;73331;48.168;20.776;2023-12-22T03:48:45;3.40;;;1.73;;
83404;SDS011;73331;48.168;20.776;2023-12-22T03:50:16;2.40;;;1.50;;
83404;SDS011;73331;48.168;20.776;2023-12-22T03:51:47;2.55;;;2.30;;
83404;SDS011;73331;48.168;20.776;2023-12-22T03:53:17;2.45;;;1.27;;
83404;SDS011;73331;48.168;20.776;2023-12-22T03:54:48;2.97;;;1.52;;
83404;SDS011;73331;48.168;20.776;2023-12-22T03:56:18;2.13;;;1.10;;
83404;SDS011;73331;48.168;20.776;2023-12-22T03:57:49;1.52;;;1.10;;
83404;SDS011;73331;48.168;20.776;2023-12-22T03:59:19;1.27;;;0.98;;
83404;SDS011;73331;48.168;20.776;2023-12-22T04:00:50;2.13;;;1.20;;
83404;SDS011;73331;48.168;20.776;2023-12-22T04:02:20;2.88;;;1.17;;
83404;SDS011;73331;48.168;20.776;2023-12-22T04:03:51;2.45;;;0.80;;
83404;SDS011;73331;48.168;20.776;2023-12-22T04:05:21;1.10;;;0.70;;
83404;SDS011;73331;48.168;20.776;2023-12-22T04:06:52;1.23;;;0.82;;
83404;SDS011;73331;48.168;20.776;2023-12-22T04:08:22;2.00;;;0.82;;
83404;SDS011;73331;48.168;20.776;2023-12-22T04:09:53;2.25;;;0.80;;
83404;SDS011;73331;48.168;20.776;2023-12-22T04:11:23;0.90;;;0.70;;
83404;SDS011;73331;48.168;20.776;2023-12-22T04:12:54;0.80;;;0.68;;
83404;SDS011;73331;48.168;20.776;2023-12-22T04:14:24;2.88;;;0.80;;
83404;SDS011;73331;48.168;20.776;2023-12-22T04:15:55;0.50;;;0.35;;
83404;SDS011;73331;48.168;20.776;2023-12-22T04:17:25;1.17;;;0.65;;
83404;SDS011;73331;48.168;20.776;2023-12-22T04:18:56;1.00;;;0.65;;
83404;SDS011;73331;48.168;20.776;2023-12-22T04:20:26;1.42;;;0.63;;
83404;SDS011;73331;48.168;20.776;2023-12-22T04:21:57;1.90;;;0.80;;
83404;SDS011;73331;48.168;20.776;2023-12-22T04:23:27;1.45;;;0.68;;
83404;SDS011;73331;48.168;20.776;2023-12-22T04:24:58;0.95;;;0.60;;
83404;SDS011;73331;48.168;20.776;2023-12-22T04:26:28;1.05;;;0.80;;
83404;SDS011;73331;48.168;20.776;2023-12-22T04:27:59;0.93;;;0.68;;
83404;SDS011;73331;48.168;20.776;2023-12-22T04:29:29;1.20;;;0.70;;
83404;SDS011;73331;48.168;20.776;2023-12-22T04:31:00;0.52;;;0.35;;
83404;SDS011;73331;48.168;20.776;2023-12-22T04:32:30;1.20;;;0.50;;
83404;SDS011;73331;48.168;20.776;2023-12-22T04:34:01;1.13;;;0.60;;
83404;SDS011;73331;48.168;20.776;2023-12-22T04:35:31;1.08;;;0.40;;
83404;SDS011;73331;48.168;20.776;2023-12-22T04:37:02;3.65;;;0.98;;
83404;SDS011;73331;48.168;20.776;2023-12-22T04:38:32;2.75;;;0.88;;
83404;SDS011;73331;48.168;20.776;2023-12-22T04:40:03;1.27;;;0.57;;
83404;SDS011;73331;48.168;20.776;2023-12-22T04:41:34;1.73;;;0.80;;
83404;SDS011;73331;48.168;20.776;2023-12-22T04:43:04;2.35;;;0.75;;
83404;SDS011;73331;48.168;20.776;2023-12-22T04:44:35;2.17;;;1.20;;
83404;SDS011;73331;48.168;20.776;2023-12-22T04:46:05;2.85;;;1.50;;
83404;SDS011;73331;48.168;20.776;2023-12-22T04:47:36;1.77;;;1.10;;
83404;SDS011;73331;48.168;20.776;2023-12-22T04:49:06;1.75;;;1.13;;
83404;SDS011;73331;48.168;20.776;2023-12-22T04:50:37;2.35;;;1.20;;
83404;SDS011;73331;48.168;20.776;2023-12-22T04:52:07;2.08;;;1.25;;
83404;SDS011;73331;48.168;20.776;2023-12-22T04:53:38;2.22;;;1.30;;
83404;SDS011;73331;48.168;20.776;2023-12-22T04:55:08;3.65;;;0.70;;
83404;SDS011;73331;48.168;20.776;2023-12-22T04:56:39;4.18;;;1.25;;
83404;SDS011;73331;48.168;20.776;2023-12-22T04:58:09;3.88;;;1.70;;
83404;SDS011;73331;48.168;20.776;2023-12-22T04:59:40;3.60;;;1.23;;
83404;SDS011;73331;48.168;20.776;2023-12-22T05:01:10;2.63;;;1.45;;
83404;SDS011;73331;48.168;20.776;2023-12-22T05:02:41;2.17;;;1.33;;
83404;SDS011;73331;48.168;20.776;2023-12-22T05:04:12;2.90;;;1.25;;
83404;SDS011;73331;48.168;20.776;2023-12-22T05:05:42;3.67;;;1.00;;
83404;SDS011;73331;48.168;20.776;2023-12-22T05:07:13;1.73;;;0.73;;
83404;SDS011;73331;48.168;20.776;2023-12-22T05:08:43;1.27;;;0.60;;
83404;SDS011;73331;48.168;20.776;2023-12-22T05:10:14;2.65;;;0.80;;
83404;SDS011;73331;48.168;20.776;2023-12-22T05:11:44;1.15;;;0.50;;
83404;SDS011;73331;48.168;20.776;2023-12-22T05:13:15;2.33;;;1.88;;
83404;SDS011;73331;48.168;20.776;2023-12-22T05:14:45;1.02;;;0.77;;
83404;SDS011;73331;48.168;20.776;2023-12-22T05:16:16;1.30;;;0.70;;
83404;SDS011;73331;48.168;20.776;2023-12-22T05:17:46;0.73;;;0.60;;
83404;SDS011;73331;48.168;20.776;2023-12-22T05:19:17;5.10;;;0.50;;
83404;SDS011;73331;48.168;20.776;2023-12-22T05:20:47;0.95;;;0.80;;
83404;SDS011;73331;48.168;20.776;2023-12-22T05:22:18;0.77;;;0.50;;
83404;SDS011;73331;48.168;20.776;2023-12-22T05:23:48;3.42;;;1.17;;
83404;SDS011;73331;48.168;20.776;2023-12-22T05:25:19;1.08;;;0.50;;
83404;SDS011;73331;48.168;20.776;2023-12-22T05:26:49;1.15;;;0.73;;
83404;SDS011;73331;48.168;20.776;2023-12-22T05:28:20;2.38;;;0.82;;
83404;SDS011;73331;48.168;20.776;2023-12-22T05:29:50;2.75;;;1.35;;
83404;SDS011;73331;48.168;20.776;2023-12-22T05:31:21;1.10;;;0.50;;
83404;SDS011;73331;48.168;20.776;2023-12-22T05:32:51;5.38;;;0.43;;
83404;SDS011;73331;48.168;20.776;2023-12-22T05:34:22;2.30;;;0.73;;
83404;SDS011;73331;48.168;20.776;2023-12-22T05:35:52;1.38;;;0.50;;
83404;SDS011;73331;48.168;20.776;2023-12-22T05:37:22;1.10;;;0.65;;
83404;SDS011;73331;48.168;20.776;2023-12-22T05:38:53;1.63;;;0.60;;
83404;SDS011;73331;48.168;20.776;2023-12-22T05:40:23;1.77;;;0.57;;
83404;SDS011;73331;48.168;20.776;2023-12-22T05:41:54;1.30;;;0.45;;
83404;SDS011;73331;48.168;20.776;2023-12-22T05:43:24;1.10;;;0.70;;
83404;SDS011;73331;48.168;20.776;2023-12-22T05:44:55;1.00;;;0.45;;
83404;SDS011;73331;48.168;20.776;2023-12-22T05:46:25;2.78;;;0.50;;
83404;SDS011;73331;48.168;20.776;2023-12-22T05:47:56;0.63;;;0.47;;
83404;SDS011;73331;48.168;20.776;2023-12-22T05:49:26;1.85;;;0.50;;
83404;SDS011;73331;48.168;20.776;2023-12-22T05:50:57;3.78;;;0.80;;
83404;SDS011;73331;48.168;20.776;2023-12-22T05:52:28;3.63;;;1.25;;
83404;SDS011;73331;48.168;20.776;2023-12-22T05:53:58;1.15;;;0.70;;
83404;SDS011;73331;48.168;20.776;2023-12-22T05:55:29;1.27;;;0.65;;
83404;SDS011;73331;48.168;20.776;2023-12-22T05:56:59;3.13;;;0.75;;
83404;SDS011;73331;48.168;20.776;2023-12-22T05:58:30;5.25;;;1.00;;
83404;SDS011;73331;48.168;20.776;2023-12-22T06:00:00;2.47;;;0.80;;
83404;SDS011;73331;48.168;20.776;2023-12-22T06:01:31;3.63;;;0.70;;
83404;SDS011;73331;48.168;20.776;2023-12-22T06:03:01;2.28;;;0.57;;
83404;SDS011;73331;48.168;20.776;2023-12-22T06:04:32;1.95;;;0.70;;
83404;SDS011;73331;48.168;20.776;2023-12-22T06:06:02;2.33;;;0.80;;
83404;SDS011;73331;48.168;20.776;2023-12-22T06:07:33;2.95;;;1.42;;
83404;SDS011;73331;48.168;20.776;2023-12-22T06:09:04;3.92;;;1.60;;
83404;SDS011;73331;48.168;20.776;2023-12-22T06:10:35;3.78;;;1.30;;
83404;SDS011;73331;48.168;20.776;2023-12-22T06:12:06;10.70;;;2.97;;
83404;SDS011;73331;48.168;20.776;2023-12-22T06:13:37;7.20;;;4.22;;
83404;SDS011;73331;48.168;20.776;2023-12-22T06:15:07;8.25;;;2.80;;
83404;SDS011;73331;48.168;20.776;2023-12-22T06:16:38;11.63;;;3.80;;
83404;SDS011;73331;48.168;20.776;2023-12-22T06:18:09;5.25;;;1.83;;
83404;SDS011;73331;48.168;20.776;2023-12-22T06:19:39;3.80;;;1.83;;
83404;SDS011;73331;48.168;20.776;2023-12-22T06:21:13;3.90;;;1.25;;
83404;SDS011;73331;48.168;20.776;2023-12-22T06:22:45;4.50;;;1.30;;
83404;SDS011;73331;48.168;20.776;2023-12-22T06:24:15;3.10;;;1.45;;
83404;SDS011;73331;48.168;20.776;2023-12-22T06:25:46;3.30;;;0.73;;
83404;SDS011;73331;48.168;20.776;2023-12-22T06:27:18;4.30;;;0.95;;
83404;SDS011;73331;48.168;20.776;2023-12-22T06:28:48;2.38;;;0.75;;
83404;SDS011;73331;48.168;20.776;2023-12-22T06:30:19;3.05;;;1.00;;
83404;SDS011;73331;48.168;20.776;2023-12-22T06:31:49;3.20;;;0.75;;
83404;SDS011;73331;48.168;20.776;2023-12-22T06:33:20;1.90;;;1.00;;
83404;SDS011;73331;48.168;20.776;2023-12-22T06:34:51;1.42;;;0.93;;
83404;SDS011;73331;48.168;20.776;2023-12-22T06:36:22;2.92;;;0.70;;
83404;SDS011;73331;48.168;20.776;2023-12-22T06:37:54;2.28;;;0.88;;
83404;SDS011;73331;48.168;20.776;2023-12-22T06:39:25;2.10;;;1.10;;
83404;SDS011;73331;48.168;20.776;2023-12-22T06:40:56;1.83;;;0.77;;
83404;SDS011;73331;48.168;20.776;2023-12-22T06:42:26;2.05;;;0.80;;
83404;SDS011;73331;48.168;20.776;2023-12-22T06:43:57;1.80;;;0.80;;
83404;SDS011;73331;48.168;20.776;2023-12-22T06:45:31;3.92;;;1.10;;
83404;SDS011;73331;48.168;20.776;2023-12-22T06:47:02;1.00;;;0.65;;
83404;SDS011;73331;48.168;20.776;2023-12-22T06:48:32;3.30;;;0.70;;
83404;SDS011;73331;48.168;20.776;2023-12-22T06:50:03;3.10;;;1.50;;
83404;SDS011;73331;48.168;20.776;2023-12-22T06:51:34;2.53;;;0.68;;
83404;SDS011;73331;48.168;20.776;2023-12-22T06:53:05;2.75;;;1.08;;
83404;SDS011;73331;48.168;20.776;2023-12-22T06:54:36;2.78;;;0.73;;
83404;SDS011;73331;48.168;20.776;2023-12-22T06:56:14;3.53;;;1.20;;
83404;SDS011;73331;48.168;20.776;2023-12-22T06:57:46;1.05;;;0.50;;
83404;SDS011;73331;48.168;20.776;2023-12-22T06:59:16;1.05;;;0.50;;
83404;SDS011;73331;48.168;20.776;2023-12-22T07:00:47;1.48;;;0.95;;
83404;SDS011;73331;48.168;20.776;2023-12-22T07:02:17;4.15;;;1.35;;
83404;SDS011;73331;48.168;20.776;2023-12-22T07:03:48;3.22;;;0.70;;
83404;SDS011;73331;48.168;20.776;2023-12-22T07:06:49;1.35;;;1.00;;
83404;SDS011;73331;48.168;20.776;2023-12-22T07:08:20;2.97;;;0.80;;
83404;SDS011;73331;48.168;20.776;2023-12-22T07:09:50;2.90;;;0.98;;
83404;SDS011;73331;48.168;20.776;2023-12-22T07:11:21;2.50;;;0.77;;
83404;SDS011;73331;48.168;20.776;2023-12-22T07:12:51;2.75;;;0.70;;
83404;SDS011;73331;48.168;20.776;2023-12-22T07:14:22;2.15;;;0.73;;
83404;SDS011;73331;48.168;20.776;2023-12-22T07:15:52;2.28;;;0.90;;
83404;SDS011;73331;48.168;20.776;2023-12-22T07:17:23;2.22;;;0.90;;
83404;SDS011;73331;48.168;20.776;2023-12-22T07:18:53;0.60;;;0.32;;
83404;SDS011;73331;48.168;20.776;2023-12-22T07:20:24;2.70;;;0.80;;
83404;SDS011;73331;48.168;20.776;2023-12-22T07:21:54;1.25;;;0.60;;
83404;SDS011;73331;48.168;20.776;2023-12-22T07:23:25;4.18;;;0.60;;
83404;SDS011;73331;48.168;20.776;2023-12-22T07:24:56;3.50;;;1.45;;
83404;SDS011;73331;48.168;20.776;2023-12-22T07:26:27;3.10;;;1.25;;
83404;SDS011;73331;48.168;20.776;2023-12-22T07:27:57;7.22;;;1.45;;
83404;SDS011;73331;48.168;20.776;2023-12-22T07:29:28;3.15;;;1.30;;
83404;SDS011;73331;48.168;20.776;2023-12-22T07:30:59;4.75;;;2.80;;
83404;SDS011;73331;48.168;20.776;2023-12-22T07:32:29;4.97;;;1.83;;
83404;SDS011;73331;48.168;20.776;2023-12-22T07:34:00;2.85;;;1.13;;
83404;SDS011;73331;48.168;20.776;2023-12-22T07:35:30;4.35;;;1.20;;
83404;SDS011;73331;48.168;20.776;2023-12-22T07:37:01;2.38;;;1.48;;
83404;SDS011;73331;48.168;20.776;2023-12-22T07:38:31;4.45;;;2.17;;
83404;SDS011;73331;48.168;20.776;2023-12-22T07:40:02;5.75;;;2.88;;
83404;SDS011;73331;48.168;20.776;2023-12-22T07:41:33;5.60;;;2.22;;
83404;SDS011;73331;48.168;20.776;2023-12-22T07:43:03;5.82;;;2.63;;
83404;SDS011;73331;48.168;20.776;2023-12-22T07:44:34;4.18;;;2.05;;
83404;SDS011;73331;48.168;20.776;2023-12-22T07:46:04;5.85;;;2.03;;
83404;SDS011;73331;48.168;20.776;2023-12-22T07:47:35;3.20;;;1.45;;
83404;SDS011;73331;48.168;20.776;2023-12-22T07:49:06;5.75;;;1.17;;
83404;SDS011;73331;48.168;20.776;2023-12-22T07:50:37;3.22;;;1.20;;
83404;SDS011;73331;48.168;20.776;2023-12-22T07:52:08;3.25;;;0.93;;
83404;SDS011;73331;48.168;20.776;2023-12-22T07:53:38;2.95;;;1.02;;
83404;SDS011;73331;48.168;20.776;2023-12-22T07:55:09;5.10;;;1.60;;
83404;SDS011;73331;48.168;20.776;2023-12-22T07:56:40;2.10;;;0.80;;
83404;SDS011;73331;48.168;20.776;2023-12-22T07:58:11;3.83;;;1.00;;
83404;SDS011;73331;48.168;20.776;2023-12-22T07:59:41;1.48;;;0.90;;
83404;SDS011;73331;48.168;20.776;2023-12-22T08:01:12;5.20;;;1.48;;
83404;SDS011;73331;48.168;20.776;2023-12-22T08:02:42;2.10;;;1.20;;
83404;SDS011;73331;48.168;20.776;2023-12-22T08:04:13;2.20;;;1.23;;
83404;SDS011;73331;48.168;20.776;2023-12-22T08:05:44;6.60;;;1.50;;
83404;SDS011;73331;48.168;20.776;2023-12-22T08:07:14;3.70;;;1.20;;
83404;SDS011;73331;48.168;20.776;2023-12-22T08:08:45;2.65;;;1.60;;
83404;SDS011;73331;48.168;20.776;2023-12-22T08:10:15;3.67;;;1.20;;
83404;SDS011;73331;48.168;20.776;2023-12-22T08:11:46;4.68;;;1.00;;
83404;SDS011;73331;48.168;20.776;2023-12-22T08:13:17;2.28;;;0.80;;
83404;SDS011;73331;48.168;20.776;2023-12-22T08:14:48;5.40;;;1.58;;
83404;SDS011;73331;48.168;20.776;2023-12-22T08:16:18;3.38;;;0.80;;
83404;SDS011;73331;48.168;20.776;2023-12-22T08:17:49;2.30;;;0.90;;
83404;SDS011;73331;48.168;20.776;2023-12-22T08:19:20;3.75;;;1.30;;
83404;SDS011;73331;48.168;20.776;2023-12-22T08:20:51;1.75;;;0.70;;
83404;SDS011;73331;48.168;20.776;2023-12-22T08:22:22;2.17;;;0.80;;
83404;SDS011;73331;48.168;20.776;2023-12-22T08:23:52;1.55;;;1.08;;
83404;SDS011;73331;48.168;20.776;2023-12-22T08:25:23;3.70;;;2.00;;
83404;SDS011;73331;48.168;20.776;2023-12-22T08:26:53;5.38;;;0.95;;
83404;SDS011;73331;48.168;20.776;2023-12-22T08:28:24;3.83;;;1.13;;
83404;SDS011;73331;48.168;20.776;2023-12-22T08:29:54;3.92;;;1.30;;
83404;SDS011;73331;48.168;20.776;2023-12-22T08:31:25;2.58;;;1.75;;
83404;SDS011;73331;48.168;20.776;2023-12-22T08:32:55;4.00;;;1.83;;
83404;SDS011;73331;48.168;20.776;2023-12-22T08:34:26;3.60;;;2.60;;
83404;SDS011;73331;48.168;20.776;2023-12-22T08:35:57;2.75;;;0.73;;
83404;SDS011;73331;48.168;20.776;2023-12-22T08:37:28;4.03;;;1.67;;
83404;SDS011;73331;48.168;20.776;2023-12-22T08:38:58;4.88;;;2.28;;
83404;SDS011;73331;48.168;20.776;2023-12-22T08:40:28;3.97;;;1.45;;
83404;SDS011;73331;48.168;20.776;2023-12-22T08:41:59;7.00;;;1.98;;
83404;SDS011;73331;48.168;20.776;2023-12-22T08:43:29;3.03;;;1.98;;
83404;SDS011;73331;48.168;20.776;2023-12-22T08:45:00;2.15;;;1.30;;
83404;SDS011;73331;48.168;20.776;2023-12-22T08:46:30;3.50;;;1.13;;
83404;SDS011;73331;48.168;20.776;2023-12-22T08:48:01;5.43;;;2.80;;
83404;SDS011;73331;48.168;20.776;2023-12-22T08:49:32;3.58;;;1.48;;
83404;SDS011;73331;48.168;20.776;2023-12-22T08:51:03;5.65;;;2.13;;
83404;SDS011;73331;48.168;20.776;2023-12-22T08:52:34;4.32;;;1.45;;
83404;SDS011;73331;48.168;20.776;2023-12-22T08:54:05;7.20;;;1.98;;
83404;SDS011;73331;48.168;20.776;2023-12-22T08:55:35;2.65;;;1.40;;
83404;SDS011;73331;48.168;20.776;2023-12-22T08:57:06;4.25;;;1.00;;
83404;SDS011;73331;48.168;20.776;2023-12-22T08:58:36;6.30;;;1.48;;
83404;SDS011;73331;48.168;20.776;2023-12-22T09:00:07;4.32;;;1.23;;
83404;SDS011;73331;48.168;20.776;2023-12-22T09:01:40;7.70;;;1.83;;
83404;SDS011;73331;48.168;20.776;2023-12-22T09:03:13;6.38;;;2.42;;
83404;SDS011;73331;48.168;20.776;2023-12-22T09:04:44;3.10;;;0.93;;